createdAt,value
2023-02-05T00:02:45.230Z,81.51
2023-02-05T00:05:51.016Z,82.09
2023-02-05T00:08:56.514Z,82.17
2023-02-05T00:12:01.791Z,82.53
2023-02-05T00:15:06.783Z,82.60
2023-02-05T00:18:13.642Z,82.80
2023-02-05T00:21:21.146Z,82.72
2023-02-05T00:24:26.496Z,82.71
2023-02-05T00:27:32.309Z,82.89
2023-02-05T00:30:38.563Z,83.18
2023-02-05T00:33:45.046Z,83.39
2023-02-05T00:36:50.637Z,83.58
2023-02-05T00:39:57.577Z,83.41
2023-02-05T00:42:58.597Z,83.53
2023-02-05T00:46:04.854Z,83.69
2023-02-05T00:49:10.997Z,84.03
2023-02-05T00:52:17.862Z,83.99
2023-02-05T00:55:16.393Z,84.09
2023-02-05T00:58:22.674Z,84.54
2023-02-05T01:01:27.786Z,84.47
2023-02-05T01:04:32.847Z,84.10
2023-02-05T01:07:38.682Z,83.82
2023-02-05T01:10:45.722Z,83.58
2023-02-05T01:13:51.934Z,83.66
2023-02-05T01:16:58.351Z,83.37
2023-02-05T01:20:03.989Z,82.99
2023-02-05T01:23:09.654Z,82.96
2023-02-05T01:26:15.080Z,82.20
2023-02-05T01:29:21.408Z,82.21
2023-02-05T01:32:27.208Z,82.51
2023-02-05T01:35:33.856Z,82.66
2023-02-05T01:38:39.601Z,82.88
2023-02-05T01:41:47.653Z,83.21
2023-02-05T01:44:54.155Z,83.39
2023-02-05T01:48:01.307Z,83.47
2023-02-05T01:51:03.662Z,83.15
2023-02-05T01:54:02.562Z,83.05
2023-02-05T01:57:11.280Z,83.28
2023-02-05T02:00:18.739Z,83.00
2023-02-05T02:03:27.041Z,83.39
2023-02-05T02:06:33.387Z,82.76
2023-02-05T02:09:39.843Z,82.44
2023-02-05T02:12:48.514Z,82.68
2023-02-05T02:15:54.556Z,83.06
2023-02-05T02:19:00.710Z,82.99
2023-02-05T02:22:35.438Z,83.59
2023-02-05T02:26:19.714Z,84.08
2023-02-05T02:29:30.811Z,84.58
2023-02-05T02:32:52.091Z,84.83
2023-02-05T02:36:00.334Z,84.82
2023-02-05T02:39:19.102Z,84.40
2023-02-05T02:42:38.591Z,84.13
2023-02-05T02:45:45.154Z,84.86
2023-02-05T02:48:51.138Z,84.56
2023-02-05T02:51:57.369Z,83.98
2023-02-05T02:55:03.453Z,84.24
2023-02-05T02:58:10.250Z,84.17
2023-02-05T03:01:16.370Z,84.55
2023-02-05T03:04:30.287Z,84.83
2023-02-05T03:07:45.750Z,84.93
2023-02-05T03:10:58.360Z,85.06
2023-02-05T03:14:04.277Z,85.11
2023-02-05T03:17:10.058Z,85.25
2023-02-05T03:20:26.032Z,85.52
2023-02-05T03:23:32.106Z,85.74
2023-02-05T03:26:42.936Z,85.90
2023-02-05T03:29:53.695Z,86.06
2023-02-05T03:33:40.515Z,86.20
2023-02-05T03:37:16.623Z,86.08
2023-02-05T03:40:38.959Z,86.15
2023-02-05T03:44:10.424Z,86.26
2023-02-05T03:47:24.524Z,85.86
2023-02-05T03:50:40.510Z,86.38
2023-02-05T03:53:49.769Z,86.66
2023-02-05T03:56:52.391Z,86.29
2023-02-05T03:59:58.829Z,86.63
2023-02-05T04:03:07.429Z,86.74
2023-02-05T04:06:14.048Z,87.17
2023-02-05T04:09:20.857Z,87.02
2023-02-05T04:12:28.190Z,86.77
2023-02-05T04:15:34.800Z,86.97
2023-02-05T04:18:41.966Z,87.04
2023-02-05T04:21:47.505Z,87.35
2023-02-05T04:24:53.414Z,87.70
2023-02-05T04:28:00.447Z,87.25
2023-02-05T04:31:07.232Z,87.39
2023-02-05T04:34:14.801Z,86.90
2023-02-05T04:37:21.496Z,86.70
2023-02-05T04:40:27.442Z,87.07
2023-02-05T04:43:33.977Z,87.43
2023-02-05T04:46:39.057Z,87.15
2023-02-05T04:49:47.606Z,87.10
2023-02-05T04:52:54.307Z,87.13
2023-02-05T04:56:01.574Z,87.21
2023-02-05T04:59:07.101Z,87.25
2023-02-05T05:02:14.967Z,87.82
2023-02-05T05:05:21.439Z,88.49
2023-02-05T05:08:29.399Z,88.51
2023-02-05T05:11:35.758Z,88.55
2023-02-05T05:14:40.522Z,88.25
2023-02-05T05:17:46.472Z,87.85
2023-02-05T05:20:52.928Z,87.75
2023-02-05T05:23:59.608Z,88.21
2023-02-05T05:27:05.500Z,88.43
2023-02-05T05:30:11.323Z,88.71
2023-02-05T05:33:17.523Z,89.26
2023-02-05T05:36:23.232Z,89.32
2023-02-05T05:39:47.631Z,88.78
2023-02-05T05:43:11.884Z,89.00
2023-02-05T05:46:17.161Z,88.71
2023-02-05T05:49:22.890Z,88.76
2023-02-05T05:52:29.785Z,88.88
2023-02-05T05:55:35.637Z,88.51
2023-02-05T05:58:41.017Z,88.32
2023-02-05T06:01:46.028Z,87.97
2023-02-05T06:04:52.639Z,87.47
2023-02-05T06:07:59.661Z,87.25
2023-02-05T06:11:06.149Z,86.40
2023-02-05T06:14:13.027Z,86.36
2023-02-05T06:17:17.928Z,86.95
2023-02-05T06:20:24.778Z,87.14
2023-02-05T06:23:31.083Z,86.44
2023-02-05T06:26:36.860Z,85.70
2023-02-05T06:29:43.159Z,85.65
2023-02-05T06:32:47.963Z,85.15
2023-02-05T06:35:54.571Z,85.02
2023-02-05T06:39:00.381Z,85.14
2023-02-05T06:42:05.899Z,85.50
2023-02-05T06:45:26.027Z,85.63
2023-02-05T06:48:31.773Z,85.42
2023-02-05T06:51:37.836Z,85.32
2023-02-05T06:54:42.919Z,85.21
2023-02-05T06:57:48.511Z,85.04
2023-02-05T07:00:48.701Z,83.84
2023-02-05T07:03:41.650Z,83.55
2023-02-05T07:06:46.883Z,82.76
2023-02-05T07:09:53.376Z,82.42
2023-02-05T07:12:59.761Z,82.31
2023-02-05T07:16:06.179Z,82.54
2023-02-05T07:19:07.068Z,82.35
2023-02-05T07:22:14.793Z,80.98
2023-02-05T07:25:22.228Z,80.22
2023-02-05T07:28:28.266Z,79.74
2023-02-05T07:31:35.267Z,78.62
2023-02-05T07:34:40.877Z,78.01
2023-02-05T07:37:48.799Z,77.56
2023-02-05T07:40:54.500Z,76.81
2023-02-05T07:44:00.099Z,76.38
2023-02-05T07:47:06.543Z,74.99
2023-02-05T07:50:14.488Z,74.52
2023-02-05T07:53:20.933Z,75.03
2023-02-05T07:56:30.144Z,74.51
2023-02-05T07:59:37.096Z,73.99
2023-02-05T08:02:42.706Z,72.58
2023-02-05T08:05:48.550Z,72.17
2023-02-05T08:08:55.444Z,71.33
2023-02-05T08:12:02.517Z,70.50
2023-02-05T08:15:08.082Z,73.36
2023-02-05T08:18:14.559Z,69.65
2023-02-05T08:21:20.051Z,69.30
2023-02-05T08:24:26.842Z,66.75
2023-02-05T08:27:33.616Z,65.78
2023-02-05T08:30:40.687Z,64.05
2023-02-05T08:33:47.551Z,62.81
2023-02-05T08:36:53.478Z,62.07
2023-02-05T08:39:59.106Z,61.00
2023-02-05T08:43:07.259Z,60.50
2023-02-05T08:46:15.104Z,59.89
2023-02-05T08:49:20.642Z,60.11
2023-02-05T08:52:26.029Z,61.12
2023-02-05T08:55:32.060Z,60.25
2023-02-05T08:58:37.847Z,59.57
2023-02-05T09:01:47.093Z,60.15
2023-02-05T09:05:01.796Z,60.25
2023-02-05T09:08:00.430Z,63.15
2023-02-05T09:11:06.482Z,64.00
2023-02-05T09:14:13.710Z,65.31
2023-02-05T09:17:27.422Z,66.12
2023-02-05T09:20:33.518Z,66.89
2023-02-05T09:23:41.124Z,67.62
2023-02-05T09:26:49.995Z,67.95
2023-02-05T09:29:55.479Z,67.81
2023-02-05T09:33:02.290Z,67.91
2023-02-05T09:36:08.732Z,67.62
2023-02-05T09:39:30.760Z,69.58
2023-02-05T09:42:52.465Z,70.15
2023-02-05T09:46:26.088Z,71.31
2023-02-05T09:49:58.052Z,73.03
2023-02-05T09:53:04.570Z,74.24
2023-02-05T09:56:06.453Z,75.51
2023-02-05T09:58:58.532Z,75.67
2023-02-05T10:02:06.346Z,75.34
2023-02-05T10:05:01.975Z,75.39
2023-02-05T10:08:18.086Z,74.43
2023-02-05T10:11:11.396Z,73.71
2023-02-05T10:14:29.388Z,72.89
2023-02-05T10:18:15.549Z,72.29
2023-02-05T10:21:54.456Z,71.35
2023-02-05T10:25:41.492Z,71.45
2023-02-05T10:29:14.581Z,71.21
2023-02-05T10:32:35.135Z,69.74
2023-02-05T10:36:07.569Z,68.52
2023-02-05T10:39:17.229Z,68.85
2023-02-05T10:42:42.985Z,67.93
2023-02-05T10:45:48.665Z,67.11
2023-02-05T10:49:11.110Z,66.14
2023-02-05T10:52:17.277Z,66.27
2023-02-05T10:55:27.092Z,65.60
2023-02-05T10:59:16.532Z,65.39
2023-02-05T11:02:24.488Z,67.18
2023-02-05T11:05:49.189Z,67.48
2023-02-05T11:08:58.225Z,66.95
2023-02-05T11:12:10.538Z,67.10
2023-02-05T11:15:17.375Z,65.63
2023-02-05T11:18:30.622Z,66.72
2023-02-05T11:21:36.275Z,66.35
2023-02-05T11:24:50.960Z,64.37
2023-02-05T11:28:14.464Z,65.06
2023-02-05T11:31:50.013Z,66.69
2023-02-05T11:34:55.295Z,68.44
2023-02-05T11:38:06.628Z,68.86
2023-02-05T11:41:18.574Z,68.61
2023-02-05T11:44:35.880Z,69.14
2023-02-05T11:47:50.982Z,69.53
2023-02-05T11:51:00.595Z,69.93
2023-02-05T11:54:14.553Z,70.54
2023-02-05T11:57:37.628Z,71.49
2023-02-05T12:00:46.505Z,72.31
2023-02-05T12:03:51.999Z,72.30
2023-02-05T12:07:08.413Z,72.08
2023-02-05T12:10:15.909Z,71.51
2023-02-05T12:13:56.443Z,70.81
2023-02-05T12:17:16.770Z,69.98
2023-02-05T12:20:47.901Z,69.20
2023-02-05T12:24:40.970Z,69.09
2023-02-05T12:28:20.593Z,68.48
2023-02-05T12:32:17.079Z,67.52
2023-02-05T12:36:15.785Z,67.72
2023-02-05T12:39:47.351Z,67.46
2023-02-05T12:42:52.135Z,66.46
2023-02-05T12:46:21.786Z,64.88
2023-02-05T12:50:05.502Z,64.40
2023-02-05T12:53:50.882Z,63.68
2023-02-05T12:57:24.099Z,63.07
2023-02-05T13:00:39.091Z,62.28
2023-02-05T13:04:01.791Z,63.06
2023-02-05T13:07:15.154Z,62.94
2023-02-05T13:10:23.452Z,62.00
2023-02-05T13:13:35.352Z,61.95
2023-02-05T13:16:45.216Z,62.17
2023-02-05T13:20:05.438Z,62.65
2023-02-05T13:23:28.574Z,64.29
2023-02-05T13:26:54.689Z,65.07
2023-02-05T13:30:04.907Z,66.08
2023-02-05T13:33:14.735Z,68.41
2023-02-05T13:36:57.476Z,67.88
2023-02-05T13:40:35.771Z,68.06
2023-02-05T13:43:48.599Z,68.99
2023-02-05T13:47:26.294Z,71.19
2023-02-05T13:51:00.643Z,73.69
2023-02-05T13:54:29.808Z,75.43
2023-02-05T13:57:43.159Z,75.53
2023-02-05T14:00:50.131Z,75.40
2023-02-05T14:04:00.256Z,75.29
2023-02-05T14:07:23.103Z,75.16
2023-02-05T14:10:50.168Z,75.10
2023-02-05T14:13:56.925Z,74.97
2023-02-05T14:16:55.971Z,74.26
2023-02-05T14:20:01.469Z,74.04
2023-02-05T14:22:54.902Z,71.19
2023-02-05T14:25:58.055Z,69.96
2023-02-05T14:28:58.391Z,69.49
2023-02-05T14:32:04.705Z,71.02
2023-02-05T14:35:47.211Z,71.44
2023-02-05T14:38:53.088Z,71.96
2023-02-05T14:42:07.408Z,73.19
2023-02-05T14:45:14.099Z,74.28
2023-02-05T14:48:20.118Z,73.56
2023-02-05T14:51:57.629Z,73.13
2023-02-05T14:55:08.166Z,73.77
2023-02-05T14:58:21.378Z,74.16
2023-02-05T15:01:56.605Z,74.15
2023-02-05T15:05:04.415Z,73.86
2023-02-05T15:08:33.445Z,75.17
2023-02-05T15:12:04.696Z,75.71
2023-02-05T15:15:13.964Z,76.51
2023-02-05T15:18:38.861Z,76.04
2023-02-05T15:22:01.367Z,76.68
2023-02-05T15:25:07.975Z,75.55
2023-02-05T15:28:25.064Z,75.26
2023-02-05T15:31:58.334Z,76.05
2023-02-05T15:35:10.447Z,75.92
2023-02-05T15:38:30.887Z,76.06
2023-02-05T15:41:36.979Z,76.13
2023-02-05T15:44:48.946Z,77.26
2023-02-05T15:47:55.783Z,78.11
2023-02-05T15:51:10.009Z,78.11
2023-02-05T15:54:17.764Z,78.50
2023-02-05T15:57:29.802Z,79.37
2023-02-05T16:00:39.235Z,79.70
2023-02-05T16:03:51.060Z,79.67
2023-02-05T16:06:58.349Z,80.45
2023-02-05T16:10:08.096Z,80.78
2023-02-05T16:13:33.619Z,80.11
2023-02-05T16:16:38.765Z,80.27
2023-02-05T16:19:57.276Z,80.63
2023-02-05T16:23:16.278Z,79.77
2023-02-05T16:26:29.451Z,80.11
2023-02-05T16:29:25.764Z,81.34
2023-02-05T16:32:16.364Z,81.24
2023-02-05T16:35:10.652Z,81.49
2023-02-05T16:38:16.668Z,81.32
2023-02-05T16:41:47.197Z,81.80
2023-02-05T16:44:54.450Z,80.96
2023-02-05T16:48:03.410Z,80.67
2023-02-05T16:51:11.903Z,81.02
2023-02-05T16:54:29.839Z,81.27
2023-02-05T16:57:43.506Z,82.93
2023-02-05T17:00:49.183Z,82.15
2023-02-05T17:03:58.053Z,81.27
2023-02-05T17:07:05.305Z,81.98
2023-02-05T17:10:27.633Z,82.30
2023-02-05T17:13:58.077Z,82.98
2023-02-05T17:17:33.310Z,82.59
2023-02-05T17:20:42.819Z,82.58
2023-02-05T17:23:48.844Z,82.45
2023-02-05T17:26:54.888Z,83.04
2023-02-05T17:30:02.906Z,83.42
2023-02-05T17:33:09.852Z,84.72
2023-02-05T17:36:15.739Z,83.41
2023-02-05T17:39:21.571Z,83.76
2023-02-05T17:42:37.819Z,82.81
2023-02-05T17:45:47.566Z,83.24
2023-02-05T17:48:54.697Z,83.11
2023-02-05T17:52:01.767Z,83.16
2023-02-05T17:55:07.467Z,84.08
2023-02-05T17:58:14.034Z,84.51
2023-02-05T18:01:20.334Z,84.74
2023-02-05T18:04:28.699Z,83.03
2023-02-05T18:07:51.120Z,84.03
2023-02-05T18:11:00.166Z,82.49
2023-02-05T18:14:07.080Z,83.92
2023-02-05T18:17:13.361Z,84.15
2023-02-05T18:20:20.221Z,84.26
2023-02-05T18:23:29.024Z,84.29
2023-02-05T18:26:34.220Z,83.51
2023-02-05T18:29:42.155Z,83.46
2023-02-05T18:32:47.188Z,84.49
2023-02-05T18:35:54.380Z,83.86
2023-02-05T18:39:01.906Z,82.78
2023-02-05T18:42:08.640Z,83.97
2023-02-05T18:45:14.278Z,84.02
2023-02-05T18:48:21.829Z,83.92
2023-02-05T18:51:29.835Z,84.82
2023-02-05T18:54:36.630Z,84.37
2023-02-05T18:57:43.037Z,83.88
2023-02-05T19:00:48.449Z,84.30
2023-02-05T19:03:54.717Z,83.83
2023-02-05T19:07:04.660Z,84.47
2023-02-05T19:10:10.393Z,84.15
2023-02-05T19:13:17.011Z,84.58
2023-02-05T19:16:25.324Z,83.06
2023-02-05T19:19:34.675Z,84.05
2023-02-05T19:22:41.410Z,84.10
2023-02-05T19:25:49.015Z,83.83
2023-02-05T19:28:56.206Z,85.06
2023-02-05T19:32:01.667Z,85.43
2023-02-05T19:35:04.977Z,84.76
2023-02-05T19:38:10.986Z,84.85
2023-02-05T19:41:21.798Z,84.13
2023-02-05T19:44:29.317Z,84.18
2023-02-05T19:47:37.289Z,84.98
2023-02-05T19:50:43.653Z,85.50
2023-02-05T19:53:52.321Z,84.68
2023-02-05T19:56:59.124Z,85.25
2023-02-05T20:00:04.989Z,85.76
2023-02-05T20:03:11.060Z,85.66
2023-02-05T20:06:22.531Z,85.59
2023-02-05T20:09:28.816Z,85.88
2023-02-05T20:12:36.500Z,85.58
2023-02-05T20:15:42.410Z,85.77
2023-02-05T20:18:48.890Z,86.04
2023-02-05T20:21:55.885Z,84.27
2023-02-05T20:25:01.672Z,85.47
2023-02-05T20:28:07.900Z,86.82
2023-02-05T20:31:33.258Z,84.68
2023-02-05T20:34:42.849Z,84.62
2023-02-05T20:37:50.300Z,84.95
2023-02-05T20:40:56.544Z,84.52
2023-02-05T20:44:04.316Z,85.01
2023-02-05T20:47:09.859Z,84.20
2023-02-05T20:50:16.416Z,84.78
2023-02-05T20:53:23.399Z,85.10
2023-02-05T20:56:35.928Z,85.65
2023-02-05T20:59:44.875Z,85.27
2023-02-05T21:02:51.308Z,84.62
2023-02-05T21:05:58.211Z,84.01
2023-02-05T21:09:05.779Z,85.02
2023-02-05T21:12:13.334Z,85.02
2023-02-05T21:15:21.718Z,85.02
2023-02-05T21:18:27.984Z,85.25
2023-02-05T21:21:41.301Z,85.99
2023-02-05T21:24:47.811Z,86.74
2023-02-05T21:27:53.730Z,87.31
2023-02-05T21:31:00.119Z,86.49
2023-02-05T21:34:07.752Z,88.01
2023-02-05T21:37:13.908Z,87.95
2023-02-05T21:40:21.638Z,87.50
2023-02-05T21:43:27.255Z,86.18
2023-02-05T21:46:33.288Z,87.61
2023-02-05T21:49:41.006Z,86.95
2023-02-05T21:52:41.612Z,88.23
2023-02-05T21:55:49.369Z,87.94
2023-02-05T21:58:56.028Z,87.39
2023-02-05T22:02:02.653Z,87.61
2023-02-05T22:05:10.359Z,86.80
2023-02-05T22:08:15.742Z,87.30
2023-02-05T22:11:25.017Z,87.51
2023-02-05T22:14:32.879Z,87.46
2023-02-05T22:17:38.729Z,87.84
2023-02-05T22:20:46.578Z,87.40
2023-02-05T22:23:52.657Z,86.37
2023-02-05T22:27:00.894Z,86.63
2023-02-05T22:30:08.184Z,86.02
2023-02-05T22:33:17.625Z,86.73
2023-02-05T22:36:25.459Z,85.71
2023-02-05T22:39:33.213Z,85.70
2023-02-05T22:42:39.716Z,86.24
2023-02-05T22:45:47.693Z,86.42
2023-02-05T22:48:58.374Z,86.04
2023-02-05T22:52:07.604Z,84.37
2023-02-05T22:55:14.728Z,84.99
2023-02-05T22:58:22.431Z,84.45
2023-02-05T23:01:35.799Z,84.15
2023-02-05T23:04:42.349Z,83.74
2023-02-05T23:07:47.842Z,83.71
2023-02-05T23:10:54.368Z,83.15
2023-02-05T23:14:02.390Z,82.38
2023-02-05T23:17:09.282Z,81.22
2023-02-05T23:20:14.749Z,82.58
2023-02-05T23:23:21.475Z,83.00
2023-02-05T23:26:32.262Z,82.77
2023-02-05T23:29:39.925Z,82.99
2023-02-05T23:32:46.696Z,83.58
2023-02-05T23:35:52.665Z,84.85
2023-02-05T23:38:59.421Z,84.95
2023-02-05T23:42:05.155Z,84.42
2023-02-05T23:45:10.900Z,84.77
2023-02-05T23:48:17.343Z,84.54
2023-02-05T23:51:23.260Z,83.83
2023-02-05T23:54:29.452Z,84.25
2023-02-05T23:57:37.240Z,84.71
